createdAt,value
2022-12-03T00:00:23.532Z,73.02
2022-12-03T00:02:52.255Z,73.24
2022-12-03T00:05:23.974Z,73.15
2022-12-03T00:07:52.633Z,73.10
2022-12-03T00:10:21.562Z,73.15
2022-12-03T00:12:51.631Z,73.10
2022-12-03T00:15:20.855Z,73.32
2022-12-03T00:17:49.559Z,73.39
2022-12-03T00:20:22.546Z,73.33
2022-12-03T00:22:51.473Z,73.47
2022-12-03T00:25:20.168Z,73.36
2022-12-03T00:27:50.204Z,73.37
2022-12-03T00:30:19.050Z,73.18
2022-12-03T00:32:47.711Z,73.08
2022-12-03T00:35:16.556Z,73.19
2022-12-03T00:37:45.152Z,73.26
2022-12-03T00:40:14.548Z,73.29
2022-12-03T00:42:43.228Z,73.23
2022-12-03T00:45:13.690Z,73.18
2022-12-03T00:47:42.327Z,73.15
2022-12-03T00:50:12.379Z,73.23
2022-12-03T00:52:41.024Z,73.08
2022-12-03T00:55:10.796Z,73.33
2022-12-03T00:57:39.474Z,73.31
2022-12-03T01:00:10.335Z,73.16
2022-12-03T01:02:40.525Z,73.51
2022-12-03T01:05:10.372Z,73.52
2022-12-03T01:07:39.129Z,73.45
2022-12-03T01:10:09.386Z,73.56
2022-12-03T01:12:38.081Z,73.45
2022-12-03T01:15:08.667Z,73.45
2022-12-03T01:17:37.485Z,73.39
2022-12-03T01:20:10.219Z,73.22
2022-12-03T01:22:39.035Z,73.42
2022-12-03T01:25:08.646Z,73.53
2022-12-03T01:27:37.307Z,73.67
2022-12-03T01:30:08.149Z,73.62
2022-12-03T01:32:35.825Z,73.65
2022-12-03T01:35:04.608Z,73.67
2022-12-03T01:37:34.994Z,73.73
2022-12-03T01:40:03.900Z,73.85
2022-12-03T01:42:37.904Z,73.67
2022-12-03T01:45:08.405Z,73.95
2022-12-03T01:47:39.308Z,73.97
2022-12-03T01:50:18.946Z,74.10
2022-12-03T01:52:49.199Z,74.21
2022-12-03T01:55:28.160Z,74.19
2022-12-03T01:58:00.713Z,74.14
2022-12-03T02:00:30.824Z,74.32
2022-12-03T02:03:03.455Z,74.37
2022-12-03T02:05:34.352Z,74.58
2022-12-03T02:08:33.870Z,74.47
2022-12-03T02:11:07.794Z,74.65
2022-12-03T02:14:05.114Z,74.69
2022-12-03T02:16:36.267Z,74.85
2022-12-03T02:19:14.646Z,74.91
2022-12-03T02:21:58.958Z,74.88
2022-12-03T02:24:42.957Z,75.00
2022-12-03T02:27:13.372Z,74.89
2022-12-03T02:29:42.188Z,74.85
2022-12-03T02:32:11.163Z,74.98
2022-12-03T02:34:43.586Z,74.80
2022-12-03T02:37:18.079Z,74.79
2022-12-03T02:39:53.826Z,74.68
2022-12-03T02:42:36.581Z,74.49
2022-12-03T02:45:11.602Z,74.57
2022-12-03T02:47:45.211Z,74.49
2022-12-03T02:50:20.878Z,74.47
2022-12-03T02:52:50.608Z,74.54
2022-12-03T02:55:19.968Z,74.63
2022-12-03T02:57:52.722Z,74.63
2022-12-03T03:00:23.674Z,74.72
2022-12-03T03:02:52.536Z,74.61
2022-12-03T03:05:25.206Z,74.83
2022-12-03T03:07:54.059Z,74.83
2022-12-03T03:10:25.255Z,74.74
2022-12-03T03:12:57.319Z,74.86
2022-12-03T03:15:26.608Z,74.91
2022-12-03T03:17:55.888Z,75.02
2022-12-03T03:20:25.271Z,74.94
2022-12-03T03:22:53.916Z,75.10
2022-12-03T03:25:24.760Z,75.22
2022-12-03T03:27:55.678Z,75.07
2022-12-03T03:30:24.387Z,75.23
2022-12-03T03:32:52.982Z,75.20
2022-12-03T03:35:21.916Z,75.25
2022-12-03T03:37:50.573Z,75.37
2022-12-03T03:40:19.647Z,75.28
2022-12-03T03:42:48.845Z,75.24
2022-12-03T03:45:25.717Z,75.27
2022-12-03T03:48:00.136Z,75.17
2022-12-03T03:50:31.298Z,75.47
2022-12-03T03:53:02.684Z,75.43
2022-12-03T03:55:32.459Z,75.70
2022-12-03T03:58:01.529Z,75.55
2022-12-03T04:00:32.622Z,75.58
2022-12-03T04:03:01.371Z,75.50
2022-12-03T04:05:30.152Z,75.64
2022-12-03T04:07:59.641Z,75.89
2022-12-03T04:10:45.698Z,75.99
2022-12-03T04:13:14.376Z,75.85
2022-12-03T04:15:44.509Z,75.93
2022-12-03T04:18:30.773Z,75.95
2022-12-03T04:21:13.199Z,76.01
2022-12-03T04:23:42.327Z,76.24
2022-12-03T04:26:28.447Z,76.25
2022-12-03T04:28:57.211Z,76.48
2022-12-03T04:31:44.656Z,76.55
2022-12-03T04:34:30.517Z,76.36
2022-12-03T04:36:59.347Z,76.53
2022-12-03T04:39:28.061Z,76.54
2022-12-03T04:41:56.707Z,76.82
2022-12-03T04:44:37.409Z,76.84
2022-12-03T04:47:11.871Z,76.80
2022-12-03T04:49:43.276Z,76.63
2022-12-03T04:52:12.792Z,76.78
2022-12-03T04:54:42.184Z,77.08
2022-12-03T04:57:11.950Z,77.14
2022-12-03T04:59:40.874Z,77.13
2022-12-03T05:02:11.152Z,77.24
2022-12-03T05:04:39.803Z,77.16
2022-12-03T05:07:08.422Z,77.14
2022-12-03T05:09:37.077Z,77.12
2022-12-03T05:12:06.621Z,77.34
2022-12-03T05:14:35.196Z,77.29
2022-12-03T05:17:03.877Z,77.40
2022-12-03T05:19:47.847Z,77.50
2022-12-03T05:22:16.488Z,77.51
2022-12-03T05:24:45.093Z,77.52
2022-12-03T05:27:15.004Z,77.72
2022-12-03T05:29:45.243Z,77.81
2022-12-03T05:32:13.885Z,77.80
2022-12-03T05:34:43.887Z,77.99
2022-12-03T05:37:12.579Z,77.99
2022-12-03T05:39:41.165Z,78.12
2022-12-03T05:42:28.565Z,77.97
2022-12-03T05:44:58.051Z,78.08
2022-12-03T05:47:26.733Z,78.10
2022-12-03T05:49:56.736Z,78.03
2022-12-03T05:52:25.399Z,78.26
2022-12-03T05:54:54.307Z,78.19
2022-12-03T05:57:23.225Z,77.97
2022-12-03T05:59:51.989Z,78.24
2022-12-03T06:02:20.723Z,78.14
2022-12-03T06:04:49.727Z,78.12
2022-12-03T06:07:19.900Z,78.23
2022-12-03T06:09:48.647Z,78.26
2022-12-03T06:12:17.273Z,78.39
2022-12-03T06:14:46.241Z,78.41
2022-12-03T06:17:15.042Z,78.29
2022-12-03T06:19:43.632Z,78.44
2022-12-03T06:22:13.905Z,78.46
2022-12-03T06:24:43.975Z,78.41
2022-12-03T06:27:12.964Z,78.49
2022-12-03T06:29:41.693Z,78.53
2022-12-03T06:32:10.337Z,78.52
2022-12-03T06:34:38.939Z,78.39
2022-12-03T06:37:07.581Z,78.35
2022-12-03T06:39:36.356Z,78.36
2022-12-03T06:42:06.749Z,78.43
2022-12-03T06:44:35.559Z,78.32
2022-12-03T06:47:05.070Z,78.28
2022-12-03T06:49:33.886Z,78.06
2022-12-03T06:52:02.887Z,78.11
2022-12-03T06:54:31.572Z,78.09
2022-12-03T06:57:00.382Z,78.11
2022-12-03T06:59:34.123Z,77.93
2022-12-03T07:02:02.969Z,78.10
2022-12-03T07:04:31.784Z,78.04
2022-12-03T07:07:00.554Z,78.06
2022-12-03T07:09:29.217Z,77.89
2022-12-03T07:11:57.882Z,77.87
2022-12-03T07:14:26.493Z,77.70
2022-12-03T07:16:56.525Z,77.59
2022-12-03T07:19:30.718Z,77.58
2022-12-03T07:22:01.113Z,77.75
2022-12-03T07:24:29.952Z,77.57
2022-12-03T07:26:58.824Z,77.54
2022-12-03T07:29:27.512Z,77.50
2022-12-03T07:31:57.622Z,77.45
2022-12-03T07:34:26.352Z,77.50
2022-12-03T07:36:55.053Z,77.67
2022-12-03T07:39:28.533Z,77.54
2022-12-03T07:41:57.354Z,77.57
2022-12-03T07:44:26.472Z,77.88
2022-12-03T07:46:56.687Z,77.83
2022-12-03T07:49:29.626Z,77.91
2022-12-03T07:51:58.325Z,77.69
2022-12-03T07:54:27.289Z,77.80
2022-12-03T07:57:01.213Z,77.99
2022-12-03T07:59:31.184Z,77.99
2022-12-03T08:02:02.393Z,77.86
2022-12-03T08:04:31.095Z,77.86
2022-12-03T08:07:01.577Z,78.08
2022-12-03T08:09:31.469Z,78.03
2022-12-03T08:12:04.141Z,78.01
2022-12-03T08:14:32.793Z,77.82
2022-12-03T08:17:03.115Z,77.88
2022-12-03T08:19:31.806Z,77.55
2022-12-03T08:22:01.787Z,77.47
2022-12-03T08:24:32.195Z,77.42
2022-12-03T08:27:01.957Z,77.29
2022-12-03T08:29:33.130Z,77.42
2022-12-03T08:32:03.231Z,77.42
2022-12-03T08:34:41.105Z,77.21
2022-12-03T08:37:20.049Z,77.21
2022-12-03T08:39:50.753Z,77.00
2022-12-03T08:42:42.498Z,77.00
2022-12-03T08:45:41.459Z,77.27
2022-12-03T08:48:28.931Z,77.24
2022-12-03T08:51:01.908Z,77.12
2022-12-03T08:53:35.063Z,77.08
2022-12-03T08:56:15.427Z,76.90
2022-12-03T08:58:45.832Z,76.86
2022-12-03T09:01:30.830Z,76.80
2022-12-03T09:04:22.899Z,77.02
2022-12-03T09:06:53.002Z,77.11
2022-12-03T09:09:22.760Z,77.17
2022-12-03T09:11:51.730Z,77.16
2022-12-03T09:14:22.803Z,77.10
2022-12-03T09:16:55.785Z,77.00
2022-12-03T09:19:31.156Z,77.04
2022-12-03T09:22:00.100Z,76.80
2022-12-03T09:24:28.799Z,76.78
2022-12-03T09:26:57.479Z,77.05
2022-12-03T09:29:29.262Z,76.93
2022-12-03T09:31:57.998Z,76.79
2022-12-03T09:34:28.121Z,76.82
2022-12-03T09:36:56.733Z,76.78
2022-12-03T09:39:25.376Z,76.63
2022-12-03T09:41:54.477Z,76.95
2022-12-03T09:44:23.254Z,76.75
2022-12-03T09:46:52.050Z,76.81
2022-12-03T09:49:21.226Z,76.80
2022-12-03T09:51:51.325Z,76.65
2022-12-03T09:54:25.928Z,76.56
2022-12-03T09:56:56.840Z,76.65
2022-12-03T09:59:33.265Z,76.66
2022-12-03T10:02:02.784Z,76.65
2022-12-03T10:04:31.749Z,76.57
2022-12-03T10:07:02.499Z,76.42
2022-12-03T10:09:32.122Z,76.25
2022-12-03T10:12:01.470Z,76.09
2022-12-03T10:14:31.159Z,76.09
2022-12-03T10:17:00.132Z,76.16
2022-12-03T10:19:34.050Z,76.32
2022-12-03T10:22:04.310Z,76.12
2022-12-03T10:24:35.415Z,76.23
2022-12-03T10:27:21.496Z,76.31
2022-12-03T10:29:57.294Z,76.19
2022-12-03T10:32:28.389Z,76.12
2022-12-03T10:35:11.415Z,75.90
2022-12-03T10:38:00.266Z,76.13
2022-12-03T10:40:31.700Z,76.31
2022-12-03T10:43:22.505Z,76.13
2022-12-03T10:45:52.932Z,76.27
2022-12-03T10:48:26.382Z,76.19
2022-12-03T10:50:57.833Z,76.43
2022-12-03T10:53:32.055Z,76.34
2022-12-03T10:56:05.626Z,76.24
2022-12-03T10:58:38.394Z,76.19
2022-12-03T11:01:17.430Z,76.34
2022-12-03T11:03:51.868Z,76.38
2022-12-03T11:06:22.524Z,76.12
2022-12-03T11:09:00.361Z,76.19
2022-12-03T11:11:32.643Z,76.15
2022-12-03T11:14:04.068Z,76.12
2022-12-03T11:17:12.054Z,76.05
2022-12-03T11:19:50.354Z,76.26
2022-12-03T11:22:41.231Z,76.40
2022-12-03T11:25:51.517Z,76.19
2022-12-03T11:28:55.180Z,76.20
2022-12-03T11:31:42.679Z,76.32
2022-12-03T11:34:51.076Z,76.30
2022-12-03T11:37:26.171Z,76.41
2022-12-03T11:40:33.577Z,76.43
2022-12-03T11:43:11.892Z,76.40
2022-12-03T11:45:42.506Z,76.28
2022-12-03T11:48:16.933Z,76.46
2022-12-03T11:50:52.251Z,76.54
2022-12-03T11:53:24.976Z,76.58
2022-12-03T11:56:06.703Z,76.46
2022-12-03T11:58:39.921Z,76.58
2022-12-03T12:01:10.305Z,76.66
2022-12-03T12:03:47.964Z,76.71
2022-12-03T12:06:19.562Z,76.72
2022-12-03T12:08:58.932Z,76.69
2022-12-03T12:11:30.690Z,76.74
2022-12-03T12:14:03.734Z,76.72
2022-12-03T12:16:50.759Z,76.72
2022-12-03T12:19:39.835Z,76.70
2022-12-03T12:22:32.899Z,76.63
2022-12-03T12:25:03.149Z,77.08
2022-12-03T12:27:37.622Z,76.85
2022-12-03T12:30:15.563Z,76.82
2022-12-03T12:32:48.216Z,76.92
2022-12-03T12:35:21.407Z,77.21
2022-12-03T12:37:59.068Z,76.98
2022-12-03T12:40:32.070Z,76.90
2022-12-03T12:43:08.454Z,77.03
2022-12-03T12:45:44.734Z,77.02
2022-12-03T12:48:26.284Z,76.98
2022-12-03T12:51:10.117Z,76.92
2022-12-03T12:53:42.640Z,77.17
2022-12-03T12:56:24.543Z,77.25
2022-12-03T12:58:54.474Z,77.29
2022-12-03T13:01:32.750Z,77.43
2022-12-03T13:04:02.965Z,77.34
2022-12-03T13:06:35.796Z,77.45
2022-12-03T13:09:04.620Z,77.24
2022-12-03T13:11:41.522Z,77.11
2022-12-03T13:14:19.397Z,77.23
2022-12-03T13:16:51.822Z,77.02
2022-12-03T13:19:26.540Z,77.08
2022-12-03T13:21:57.395Z,76.97
2022-12-03T13:24:35.284Z,77.10
2022-12-03T13:27:23.019Z,77.18
2022-12-03T13:29:57.579Z,77.12
2022-12-03T13:32:32.508Z,77.18
2022-12-03T13:35:05.965Z,77.29
2022-12-03T13:37:35.297Z,77.19
2022-12-03T13:40:22.504Z,77.17
2022-12-03T13:42:52.643Z,77.31
2022-12-03T13:45:36.506Z,77.39
2022-12-03T13:48:22.583Z,77.14
2022-12-03T13:50:52.770Z,77.39
2022-12-03T13:53:25.123Z,77.48
2022-12-03T13:55:59.108Z,77.21
2022-12-03T13:58:27.975Z,77.50
2022-12-03T14:00:56.968Z,77.64
2022-12-03T14:03:27.586Z,77.52
2022-12-03T14:05:58.051Z,77.43
2022-12-03T14:08:26.759Z,77.69
2022-12-03T14:11:00.196Z,77.59
2022-12-03T14:13:29.640Z,77.60
2022-12-03T14:15:58.344Z,77.55
2022-12-03T14:18:28.427Z,77.51
2022-12-03T14:20:57.069Z,77.72
2022-12-03T14:23:25.892Z,77.71
2022-12-03T14:25:54.476Z,77.74
2022-12-03T14:28:23.166Z,77.65
2022-12-03T14:30:51.779Z,77.60
2022-12-03T14:33:21.510Z,77.67
2022-12-03T14:35:53.469Z,77.75
2022-12-03T14:38:22.176Z,77.70
2022-12-03T14:40:50.779Z,77.78
2022-12-03T14:43:19.354Z,78.06
2022-12-03T14:45:48.015Z,77.90
2022-12-03T14:48:16.632Z,78.10
2022-12-03T14:50:45.493Z,78.06
2022-12-03T14:53:15.541Z,78.03
2022-12-03T14:55:45.631Z,77.93
2022-12-03T14:58:14.246Z,77.96
2022-12-03T15:00:42.856Z,77.98
2022-12-03T15:03:11.410Z,77.98
2022-12-03T15:05:41.155Z,77.89
2022-12-03T15:08:10.174Z,77.72
2022-12-03T15:10:40.168Z,77.74
2022-12-03T15:13:08.793Z,78.01
2022-12-03T15:15:37.442Z,78.13
2022-12-03T15:18:06.602Z,77.85
2022-12-03T15:20:35.705Z,77.86
2022-12-03T15:23:04.441Z,77.93
2022-12-03T15:25:34.339Z,77.99
2022-12-03T15:28:05.567Z,77.80
2022-12-03T15:30:35.522Z,77.75
2022-12-03T15:33:04.639Z,77.67
2022-12-03T15:35:33.811Z,77.82
2022-12-03T15:38:03.090Z,77.82
2022-12-03T15:40:33.055Z,77.74
2022-12-03T15:43:03.210Z,77.80
2022-12-03T15:45:31.950Z,77.62
2022-12-03T15:48:00.763Z,77.82
2022-12-03T15:50:29.736Z,77.79
2022-12-03T15:52:58.523Z,77.66
2022-12-03T15:55:27.086Z,77.90
2022-12-03T15:57:55.783Z,77.72
2022-12-03T16:00:26.017Z,77.74
2022-12-03T16:02:54.701Z,77.88
2022-12-03T16:05:23.303Z,77.75
2022-12-03T16:07:51.957Z,77.77
2022-12-03T16:10:21.608Z,77.86
2022-12-03T16:12:50.327Z,77.82
2022-12-03T16:15:22.243Z,77.96
2022-12-03T16:17:56.760Z,78.05
2022-12-03T16:20:25.502Z,78.06
2022-12-03T16:22:54.129Z,77.88
2022-12-03T16:25:22.846Z,77.81
2022-12-03T16:27:51.498Z,77.67
2022-12-03T16:30:20.487Z,77.75
2022-12-03T16:32:49.201Z,77.73
2022-12-03T16:35:19.456Z,77.64
2022-12-03T16:37:48.099Z,77.69
2022-12-03T16:40:16.998Z,77.56
2022-12-03T16:42:45.776Z,77.73
2022-12-03T16:45:33.826Z,77.78
2022-12-03T16:48:03.408Z,77.48
2022-12-03T16:50:33.503Z,77.58
2022-12-03T16:53:02.130Z,77.50
2022-12-03T16:55:32.125Z,77.49
2022-12-03T16:58:00.809Z,77.40
2022-12-03T17:00:29.577Z,77.36
2022-12-03T17:02:58.237Z,77.48
2022-12-03T17:05:26.947Z,77.31
2022-12-03T17:07:57.099Z,77.24
2022-12-03T17:10:25.940Z,77.02
2022-12-03T17:13:09.276Z,77.39
2022-12-03T17:15:38.932Z,77.28
2022-12-03T17:18:08.671Z,77.29
2022-12-03T17:20:38.776Z,77.29
2022-12-03T17:23:12.197Z,77.17
2022-12-03T17:25:40.804Z,77.08
2022-12-03T17:28:09.456Z,77.08
2022-12-03T17:30:41.423Z,77.27
2022-12-03T17:33:10.168Z,77.12
2022-12-03T17:35:38.781Z,77.14
2022-12-03T17:38:09.196Z,77.23
2022-12-03T17:40:37.828Z,77.08
2022-12-03T17:43:06.532Z,76.98
2022-12-03T17:45:36.826Z,76.92
2022-12-03T17:48:05.922Z,77.20
2022-12-03T17:50:34.607Z,77.03
2022-12-03T17:53:05.465Z,77.05
2022-12-03T17:55:41.287Z,77.16
2022-12-03T17:58:14.987Z,77.00
2022-12-03T18:00:43.985Z,76.92
2022-12-03T18:03:12.799Z,77.08
2022-12-03T18:05:41.742Z,77.11
2022-12-03T18:08:10.868Z,76.79
2022-12-03T18:10:41.342Z,76.89
2022-12-03T18:13:10.045Z,76.86
2022-12-03T18:15:39.126Z,76.81
2022-12-03T18:18:07.941Z,76.69
2022-12-03T18:20:37.055Z,76.78
2022-12-03T18:23:06.658Z,76.71
2022-12-03T18:25:36.554Z,76.81
2022-12-03T18:28:06.868Z,76.88
2022-12-03T18:30:35.617Z,76.85
2022-12-03T18:33:05.422Z,76.88
2022-12-03T18:35:34.104Z,76.92
2022-12-03T18:38:03.084Z,76.94
2022-12-03T18:40:31.740Z,76.89
2022-12-03T18:43:43.377Z,76.73
2022-12-03T18:46:45.056Z,76.59
2022-12-03T18:49:07.565Z,76.89
2022-12-03T18:51:36.330Z,76.98
2022-12-03T18:54:05.334Z,76.93
2022-12-03T18:56:34.060Z,76.89
2022-12-03T18:59:02.783Z,77.01
2022-12-03T19:01:33.710Z,76.88
2022-12-03T19:04:02.585Z,77.16
2022-12-03T19:06:31.274Z,77.23
2022-12-03T19:08:59.928Z,76.94
2022-12-03T19:11:28.597Z,77.06
2022-12-03T19:13:59.060Z,76.73
2022-12-03T19:16:27.709Z,76.80
2022-12-03T19:18:57.942Z,76.81
2022-12-03T19:21:32.117Z,76.93
2022-12-03T19:26:54.675Z,77.31
2022-12-03T19:29:24.444Z,77.24
2022-12-03T19:31:53.526Z,77.36
2022-12-03T19:34:23.802Z,77.40
2022-12-03T19:36:52.439Z,77.24
2022-12-03T19:39:21.033Z,77.28
2022-12-03T19:41:49.713Z,77.52
2022-12-03T19:44:19.961Z,77.33
2022-12-03T19:46:51.045Z,77.33
2022-12-03T19:49:21.313Z,77.31
2022-12-03T19:51:52.105Z,77.36
2022-12-03T19:54:20.848Z,77.34
2022-12-03T19:56:49.415Z,77.38
2022-12-03T19:59:18.067Z,77.41
2022-12-03T20:01:46.796Z,77.43
2022-12-03T20:04:15.603Z,77.49
2022-12-03T20:06:45.459Z,77.48
2022-12-03T20:09:18.026Z,77.48
2022-12-03T20:12:07.163Z,77.39
2022-12-03T20:14:35.776Z,77.62
2022-12-03T20:17:06.465Z,77.44
2022-12-03T20:19:37.324Z,77.39
2022-12-03T20:22:06.038Z,77.17
2022-12-03T20:24:38.359Z,77.47
2022-12-03T20:27:07.072Z,77.66
2022-12-03T20:29:35.701Z,77.54
2022-12-03T20:32:05.093Z,77.64
2022-12-03T20:34:35.942Z,77.80
2022-12-03T20:37:04.599Z,77.66
2022-12-03T20:39:33.453Z,77.50
2022-12-03T20:42:03.397Z,77.56
2022-12-03T20:44:32.017Z,77.35
2022-12-03T20:47:00.567Z,77.32
2022-12-03T20:49:30.186Z,77.51
2022-12-03T20:52:02.845Z,77.05
2022-12-03T20:54:33.229Z,77.74
2022-12-03T20:57:03.293Z,77.56
2022-12-03T20:59:32.897Z,77.73
2022-12-03T21:02:01.618Z,77.66
2022-12-03T21:04:30.375Z,77.39
2022-12-03T21:07:00.169Z,77.69
2022-12-03T21:09:28.847Z,77.96
2022-12-03T21:11:57.513Z,78.03
2022-12-03T21:14:27.682Z,77.64
2022-12-03T21:17:11.940Z,77.67
2022-12-03T21:19:40.759Z,77.64
2022-12-03T21:22:09.455Z,77.82
2022-12-03T21:24:39.245Z,77.77
2022-12-03T21:27:08.868Z,77.69
2022-12-03T21:29:39.468Z,77.78
2022-12-03T21:32:08.127Z,77.79
2022-12-03T21:34:36.807Z,77.87
2022-12-03T21:37:05.907Z,77.81
2022-12-03T21:39:34.664Z,77.77
2022-12-03T21:42:18.630Z,77.77
2022-12-03T21:44:53.625Z,77.73
2022-12-03T21:47:22.455Z,77.70
2022-12-03T21:49:51.120Z,77.66
2022-12-03T21:52:19.821Z,77.65
2022-12-03T21:54:48.641Z,77.90
2022-12-03T21:57:17.214Z,77.98
2022-12-03T21:59:46.008Z,77.81
2022-12-03T22:02:16.199Z,77.55
2022-12-03T22:04:45.248Z,77.71
2022-12-03T22:07:13.851Z,77.74
2022-12-03T22:09:43.859Z,77.65
2022-12-03T22:12:12.586Z,77.67
2022-12-03T22:14:41.270Z,77.77
2022-12-03T22:17:09.972Z,77.71
2022-12-03T22:19:40.253Z,77.65
2022-12-03T22:22:08.933Z,77.77
2022-12-03T22:24:38.700Z,77.62
2022-12-03T22:27:07.518Z,77.58
2022-12-03T22:29:36.128Z,77.82
2022-12-03T22:32:05.098Z,77.66
2022-12-03T22:34:34.459Z,77.64
2022-12-03T22:37:04.585Z,77.56
2022-12-03T22:39:33.378Z,77.74
2022-12-03T22:42:02.020Z,77.65
2022-12-03T22:44:30.932Z,77.74
2022-12-03T22:46:59.540Z,77.56
2022-12-03T22:49:28.402Z,77.59
2022-12-03T22:51:57.099Z,77.66
2022-12-03T22:54:27.147Z,77.67
2022-12-03T22:56:55.755Z,77.69
2022-12-03T22:59:24.420Z,77.86
2022-12-03T23:01:53.104Z,77.81
2022-12-03T23:04:21.878Z,77.88
2022-12-03T23:06:50.650Z,77.96
2022-12-03T23:09:19.301Z,77.99
2022-12-03T23:11:49.451Z,78.18
2022-12-03T23:14:18.042Z,78.21
2022-12-03T23:16:46.660Z,78.34
2022-12-03T23:19:15.403Z,78.35
2022-12-03T23:21:44.067Z,78.11
2022-12-03T23:24:12.775Z,78.42
2022-12-03T23:26:41.426Z,78.44
2022-12-03T23:29:11.457Z,78.63
2022-12-03T23:31:40.241Z,78.53
2022-12-03T23:34:09.100Z,78.63
2022-12-03T23:36:38.049Z,78.77
2022-12-03T23:39:07.017Z,78.87
2022-12-03T23:41:36.195Z,78.92
2022-12-03T23:44:04.919Z,78.98
2022-12-03T23:46:35.491Z,78.90
2022-12-03T23:49:04.264Z,78.81
2022-12-03T23:51:33.096Z,78.86
2022-12-03T23:54:01.945Z,78.84
2022-12-03T23:56:32.537Z,78.85
2022-12-03T23:59:01.140Z,79.04
